Time;durP1;ratioP1;P1;durP2;ratioP2;P2;SDS_P1;SDS_P2;PMS_P1;PMS_P2;Temp;Humidity;BMP_temperature;BMP_pressure;BME280_temperature;BME280_humidity;BME280_pressure;Samples;Min_cycle;Max_cycle;Signal;HPM_P1;HPM_P2
2021/03/19 00:02:02;;;;;;;23.80;10.57;;;4.20;86.50;;;;;;5031232;28;20473;-72
2021/03/19 00:04:28;;;;;;;18.70;8.87;;;4.10;86.20;;;;;;4996521;28;20174;-71
2021/03/19 00:06:54;;;;;;;15.13;10.70;;;4.00;86.00;;;;;;5014207;28;20422;-72
2021/03/19 00:09:19;;;;;;;20.80;11.30;;;4.00;86.00;;;;;;5022997;28;20424;-70
2021/03/19 00:11:45;;;;;;;13.50;9.50;;;4.00;85.80;;;;;;5016163;28;20270;-70
2021/03/19 00:14:11;;;;;;;17.37;10.50;;;3.90;85.50;;;;;;5016012;28;20681;-73
2021/03/19 00:16:38;;;;;;;18.83;10.87;;;3.90;85.10;;;;;;5015042;28;20590;-72
2021/03/19 00:19:06;;;;;;;14.40;9.30;;;3.80;85.10;;;;;;5014899;28;20476;-72
2021/03/19 00:21:32;;;;;;;15.77;8.40;;;3.80;84.80;;;;;;5015694;28;20406;-72
2021/03/19 00:23:58;;;;;;;16.83;9.47;;;3.80;84.70;;;;;;5013585;28;20468;-71
2021/03/19 00:26:24;;;;;;;18.60;10.00;;;3.80;84.30;;;;;;5028997;28;20414;-71
2021/03/19 00:28:51;;;;;;;18.43;10.77;;;3.80;84.10;;;;;;5029875;28;20171;-71
2021/03/19 00:31:17;;;;;;;22.07;15.20;;;3.80;84.20;;;;;;5013407;28;20946;-71
2021/03/19 00:33:42;;;;;;;18.83;10.37;;;3.80;84.30;;;;;;5012680;28;20434;-71
2021/03/19 00:36:08;;;;;;;24.53;11.00;;;3.70;84.20;;;;;;5013625;28;20414;-71
2021/03/19 00:38:34;;;;;;;16.07;10.70;;;3.70;84.20;;;;;;5011736;28;20214;-71
2021/03/19 00:41:00;;;;;;;21.07;12.10;;;3.70;84.10;;;;;;5011084;28;20455;-73
2021/03/19 00:43:26;;;;;;;22.60;12.27;;;3.70;83.90;;;;;;5013537;28;20202;-73
2021/03/19 00:45:51;;;;;;;16.97;10.93;;;3.70;83.80;;;;;;4995834;28;20418;-72
2021/03/19 00:48:17;;;;;;;16.87;10.47;;;3.70;83.30;;;;;;5013042;28;20945;-72
2021/03/19 00:50:44;;;;;;;22.23;12.43;;;3.60;83.20;;;;;;5013719;28;20518;-72
2021/03/19 00:53:10;;;;;;;16.30;11.03;;;3.60;83.30;;;;;;5013547;28;20256;-71
2021/03/19 00:55:37;;;;;;;18.03;12.10;;;3.60;83.40;;;;;;5013818;28;20471;-72
2021/03/19 00:58:03;;;;;;;17.57;9.90;;;3.60;83.40;;;;;;5012795;28;20463;-71
2021/03/19 01:00:35;;;;;;;16.17;10.33;;;3.50;82.60;;;;;;5027816;28;20931;-71
2021/03/19 01:03:01;;;;;;;17.37;10.03;;;3.50;82.20;;;;;;5013186;28;20454;-73
2021/03/19 01:05:36;;;;;;;14.60;9.60;;;3.50;81.60;;;;;;5011888;28;20826;-71
2021/03/19 01:08:07;;;;;;;16.70;10.20;;;3.50;81.20;;;;;;5011361;28;20788;-72
2021/03/19 01:10:59;;;;;;;14.90;9.27;;;3.50;81.00;;;;;;5012975;28;20406;-74
2021/03/19 01:13:25;;;;;;;19.57;10.13;;;3.50;81.20;;;;;;5002451;28;20442;-72
2021/03/19 01:15:52;;;;;;;18.60;11.17;;;3.40;81.20;;;;;;5013634;28;20422;-73
2021/03/19 01:18:21;;;;;;;17.77;11.23;;;3.40;81.40;;;;;;5011280;28;20524;-73
2021/03/19 01:20:48;;;;;;;14.97;10.60;;;3.40;81.20;;;;;;5011596;28;20417;-72
2021/03/19 01:23:15;;;;;;;15.93;12.20;;;3.30;81.10;;;;;;5012785;28;20490;-71
2021/03/19 01:25:41;;;;;;;18.20;9.57;;;3.30;81.20;;;;;;5012861;28;20402;-72
2021/03/19 01:28:07;;;;;;;17.97;10.03;;;3.30;81.40;;;;;;5012924;28;20886;-73
2021/03/19 01:30:35;;;;;;;16.27;10.07;;;3.30;81.60;;;;;;5012796;28;20508;-72
2021/03/19 01:33:01;;;;;;;16.60;11.53;;;3.30;81.70;;;;;;5011790;28;20457;-71
2021/03/19 01:35:30;;;;;;;18.97;11.83;;;3.30;82.00;;;;;;5013685;28;20410;-72
2021/03/19 01:37:56;;;;;;;18.40;11.70;;;3.30;81.90;;;;;;5012283;28;20445;-72
2021/03/19 01:40:29;;;;;;;20.93;14.13;;;3.20;81.90;;;;;;4994357;28;20418;-71
2021/03/19 01:43:09;;;;;;;20.90;14.00;;;3.30;82.10;;;;;;5012706;28;20202;-70
2021/03/19 01:46:12;;;;;;;17.20;12.30;;;3.30;82.20;;;;;;5011211;28;20513;-71
2021/03/19 01:49:15;;;;;;;23.97;13.27;;;3.40;82.30;;;;;;5012510;28;20426;-72
2021/03/19 01:52:18;;;;;;;22.80;13.30;;;3.40;82.10;;;;;;5007270;28;20449;-72
2021/03/19 01:55:21;;;;;;;19.30;12.13;;;3.40;81.90;;;;;;4993260;28;21110;-72
2021/03/19 01:58:24;;;;;;;14.43;10.23;;;3.40;82.10;;;;;;5011982;28;20500;-72
2021/03/19 02:01:27;;;;;;;20.00;12.67;;;3.40;82.30;;;;;;5007766;28;20877;-72
2021/03/19 02:04:30;;;;;;;21.30;12.37;;;3.30;82.40;;;;;;5005470;28;20536;-73
2021/03/19 02:07:33;;;;;;;17.13;11.40;;;3.30;82.60;;;;;;5014056;28;20413;-71
2021/03/19 02:10:36;;;;;;;22.33;12.67;;;3.30;83.00;;;;;;4991887;28;20436;-70
2021/03/19 02:13:39;;;;;;;20.27;12.93;;;3.30;82.80;;;;;;4995913;28;20480;-71
2021/03/19 02:16:42;;;;;;;23.03;14.07;;;3.30;82.20;;;;;;5011393;28;20476;-71
2021/03/19 02:19:46;;;;;;;21.73;14.40;;;3.40;82.10;;;;;;5011407;28;20491;-71
2021/03/19 02:22:49;;;;;;;18.63;12.53;;;3.40;81.90;;;;;;5027108;28;20514;-73
2021/03/19 02:25:52;;;;;;;22.60;13.23;;;3.40;82.00;;;;;;5009719;28;20413;-72
2021/03/19 02:28:56;;;;;;;20.60;12.53;;;3.40;81.90;;;;;;5010470;28;20508;-71
2021/03/19 02:31:49;;;;;;;20.03;12.27;;;3.40;81.80;;;;;;5011367;28;20425;-72
2021/03/19 02:34:14;;;;;;;23.80;14.50;;;3.30;81.60;;;;;;5026434;28;20476;-71
2021/03/19 02:36:40;;;;;;;23.33;15.03;;;3.30;81.70;;;;;;5010698;28;20417;-72
2021/03/19 02:39:06;;;;;;;20.37;12.50;;;3.20;81.90;;;;;;5010577;28;20210;-72
2021/03/19 02:41:31;;;;;;;21.77;13.07;;;3.10;81.70;;;;;;5009936;28;20175;-71
2021/03/19 02:43:57;;;;;;;21.80;12.73;;;3.10;81.90;;;;;;5011092;28;20163;-73
2021/03/19 02:46:23;;;;;;;19.80;13.10;;;3.00;81.80;;;;;;5011110;28;20163;-70
2021/03/19 02:48:48;;;;;;;26.47;13.20;;;3.00;82.00;;;;;;5010860;28;20199;-71
2021/03/19 02:51:14;;;;;;;22.87;12.07;;;2.90;82.10;;;;;;4985454;28;20258;-71
2021/03/19 02:53:40;;;;;;;22.30;14.47;;;2.90;82.50;;;;;;5010803;28;20209;-71
2021/03/19 02:56:08;;;;;;;22.80;14.60;;;2.90;82.80;;;;;;5017565;28;20167;-71
2021/03/19 02:58:35;;;;;;;21.30;13.63;;;2.80;82.90;;;;;;5018950;28;20305;-74
2021/03/19 03:01:02;;;;;;;25.17;15.37;;;2.80;83.10;;;;;;5033410;28;20887;-71
2021/03/19 03:03:28;;;;;;;26.03;15.13;;;2.80;83.10;;;;;;5020151;28;20437;-70
2021/03/19 03:05:54;;;;;;;24.50;14.53;;;2.70;83.40;;;;;;5019870;28;20425;-71
2021/03/19 03:08:21;;;;;;;27.63;15.50;;;2.70;83.70;;;;;;5014502;28;20337;-72
2021/03/19 03:10:49;;;;;;;20.70;12.03;;;2.70;83.80;;;;;;5015938;28;20181;-72
2021/03/19 03:13:15;;;;;;;27.57;15.37;;;2.70;83.90;;;;;;5015856;28;20433;-72
2021/03/19 03:15:42;;;;;;;27.37;14.33;;;2.70;84.00;;;;;;5015893;28;21186;-71
2021/03/19 03:18:10;;;;;;;24.47;12.83;;;2.70;84.00;;;;;;5016915;28;20249;-71
2021/03/19 03:20:40;;;;;;;21.23;13.23;;;2.70;84.10;;;;;;5016057;28;20426;-73
2021/03/19 03:23:07;;;;;;;24.50;12.70;;;2.60;84.20;;;;;;5014060;28;20438;-71
2021/03/19 03:25:34;;;;;;;20.97;13.47;;;2.60;84.10;;;;;;5017015;28;20902;-71
2021/03/19 03:27:59;;;;;;;24.00;14.70;;;2.60;84.20;;;;;;5017217;28;20423;-73
2021/03/19 03:30:37;;;;;;;27.10;14.50;;;2.60;84.20;;;;;;5016796;28;20405;-72
2021/03/19 03:33:03;;;;;;;29.00;14.87;;;2.50;84.20;;;;;;5030908;28;20679;-72
2021/03/19 03:35:29;;;;;;;22.83;14.47;;;2.50;84.10;;;;;;4999122;28;20430;-71
2021/03/19 03:37:55;;;;;;;25.60;15.27;;;2.50;84.00;;;;;;5016934;28;21165;-72
2021/03/19 03:40:28;;;;;;;26.00;15.10;;;2.50;84.00;;;;;;5016027;28;20422;-71
2021/03/19 03:42:54;;;;;;;26.60;15.10;;;2.50;84.00;;;;;;5016730;28;20817;-71
2021/03/19 03:45:20;;;;;;;23.00;14.77;;;2.50;83.80;;;;;;5016823;28;20433;-72
2021/03/19 03:47:46;;;;;;;23.37;13.80;;;2.50;83.80;;;;;;5016932;28;20170;-72
2021/03/19 03:50:16;;;;;;;22.70;13.50;;;2.50;83.80;;;;;;5016527;28;20768;-71
2021/03/19 03:52:42;;;;;;;20.27;13.80;;;2.50;83.90;;;;;;5015395;28;20278;-70
2021/03/19 03:55:09;;;;;;;23.50;13.60;;;2.40;84.00;;;;;;5000177;28;20452;-71
2021/03/19 03:57:35;;;;;;;27.03;14.47;;;2.40;84.00;;;;;;5020996;28;20178;-70
2021/03/19 04:00:01;;;;;;;30.13;15.77;;;2.40;84.10;;;;;;5019595;28;20429;-71
2021/03/19 04:02:36;;;;;;;27.57;15.47;;;2.40;83.90;;;;;;5025011;28;20417;-71
2021/03/19 04:05:04;;;;;;;25.90;15.33;;;2.40;83.80;;;;;;5042976;28;20410;-71
2021/03/19 04:07:29;;;;;;;21.13;13.93;;;2.30;83.80;;;;;;5016095;28;20410;-70
2021/03/19 04:09:55;;;;;;;23.13;12.77;;;2.30;83.90;;;;;;5013619;28;20752;-71
2021/03/19 04:12:21;;;;;;;30.40;14.50;;;2.30;84.10;;;;;;5011883;28;20648;-71
2021/03/19 04:14:46;;;;;;;24.27;13.80;;;2.30;84.10;;;;;;5013627;28;20647;-71
2021/03/19 04:17:29;;;;;;;22.10;13.77;;;2.30;84.00;;;;;;5012351;28;20175;-73
2021/03/19 04:20:00;;;;;;;31.83;16.50;;;2.30;83.70;;;;;;5014021;28;20190;-72
2021/03/19 04:22:26;;;;;;;32.20;16.20;;;2.30;83.60;;;;;;5016200;28;20418;-72
2021/03/19 04:24:54;;;;;;;31.93;15.07;;;2.20;83.60;;;;;;5014685;28;20768;-71
2021/03/19 04:27:24;;;;;;;30.80;16.50;;;2.30;83.50;;;;;;5012908;28;20417;-70
2021/03/19 04:29:53;;;;;;;33.50;15.93;;;2.30;83.40;;;;;;5013003;28;20887;-72
2021/03/19 04:32:19;;;;;;;28.50;15.57;;;2.20;83.30;;;;;;5013200;28;20414;-72
2021/03/19 04:34:45;;;;;;;25.23;15.30;;;2.20;84.40;;;;;;5028281;28;20782;-72
2021/03/19 04:37:11;;;;;;;27.77;15.27;;;2.20;83.90;;;;;;5013135;28;20229;-71
2021/03/19 04:39:41;;;;;;;28.37;14.37;;;2.20;83.90;;;;;;5012679;28;20234;-71
2021/03/19 04:42:08;;;;;;;25.47;15.03;;;2.20;84.90;;;;;;5012691;28;20491;-71
2021/03/19 04:44:37;;;;;;;28.90;13.83;;;2.20;84.10;;;;;;5028164;28;20398;-72
2021/03/19 04:47:05;;;;;;;26.80;13.93;;;2.20;84.10;;;;;;5012723;28;20435;-72
2021/03/19 04:49:31;;;;;;;25.50;14.70;;;2.10;84.30;;;;;;5021058;28;20952;-71
2021/03/19 04:51:56;;;;;;;27.93;15.23;;;2.10;84.50;;;;;;5012903;28;20516;-72
2021/03/19 04:54:22;;;;;;;29.27;15.97;;;2.10;84.60;;;;;;5013095;28;20953;-72
2021/03/19 04:56:48;;;;;;;28.47;14.07;;;2.10;84.50;;;;;;5011481;28;20666;-70
2021/03/19 04:59:13;;;;;;;30.47;16.23;;;2.10;84.30;;;;;;5012525;28;20183;-72
2021/03/19 05:01:57;;;;;;;28.10;13.93;;;2.10;84.20;;;;;;5012789;28;20167;-72
2021/03/19 05:04:24;;;;;;;26.10;15.07;;;2.10;83.80;;;;;;5013048;28;20221;-70
2021/03/19 05:06:54;;;;;;;27.40;14.77;;;2.10;83.50;;;;;;5012319;28;20782;-72
2021/03/19 05:09:20;;;;;;;34.90;15.57;;;2.10;83.50;;;;;;5011452;28;20410;-71
2021/03/19 05:11:46;;;;;;;32.40;14.90;;;2.20;83.70;;;;;;5012608;28;20809;-72
2021/03/19 05:14:12;;;;;;;35.93;17.50;;;2.20;83.70;;;;;;5013530;28;20456;-73
2021/03/19 05:16:38;;;;;;;31.07;16.83;;;2.30;83.60;;;;;;5012841;28;20521;-73
2021/03/19 05:19:03;;;;;;;32.37;17.80;;;2.40;83.60;;;;;;5007381;28;20541;-72
2021/03/19 05:21:30;;;;;;;35.30;18.13;;;2.50;83.40;;;;;;4992129;28;20164;-71
2021/03/19 05:23:55;;;;;;;27.50;18.27;;;2.60;83.10;;;;;;4993427;28;20160;-73
2021/03/19 05:26:21;;;;;;;43.30;21.33;;;2.60;82.90;;;;;;4993187;28;20438;-72
2021/03/19 05:28:46;;;;;;;29.00;17.20;;;2.70;82.90;;;;;;4999126;28;20171;-72
2021/03/19 05:31:12;;;;;;;28.10;14.90;;;2.70;82.50;;;;;;5012755;28;20181;-73
2021/03/19 05:33:49;;;;;;;31.43;18.03;;;2.70;82.40;;;;;;5012722;28;20190;-71
2021/03/19 05:36:18;;;;;;;26.80;16.20;;;2.60;82.30;;;;;;5013272;28;20187;-73
2021/03/19 05:38:44;;;;;;;27.13;15.07;;;2.60;82.10;;;;;;5014993;28;20450;-71
2021/03/19 05:41:11;;;;;;;27.53;15.93;;;2.60;82.10;;;;;;5014315;28;20715;-71
2021/03/19 05:43:47;;;;;;;27.90;16.40;;;2.50;82.00;;;;;;5012834;28;20541;-73
2021/03/19 05:46:17;;;;;;;26.00;14.57;;;2.50;81.80;;;;;;5014159;28;20847;-72
2021/03/19 05:48:54;;;;;;;29.73;15.73;;;2.50;81.90;;;;;;5011868;28;20506;-70
2021/03/19 05:51:41;;;;;;;30.67;16.03;;;2.50;82.00;;;;;;5002605;28;20425;-71
2021/03/19 05:54:16;;;;;;;35.80;16.77;;;2.50;81.00;;;;;;5018804;28;20456;-72
2021/03/19 05:56:44;;;;;;;25.90;16.70;;;2.50;80.60;;;;;;5017766;28;20747;-72
2021/03/19 05:59:10;;;;;;;23.83;14.93;;;2.50;80.20;;;;;;5018125;28;20458;-73
2021/03/19 06:01:37;;;;;;;23.07;13.87;;;2.50;79.80;;;;;;5019453;28;20440;-73
2021/03/19 06:04:04;;;;;;;22.47;12.70;;;2.50;79.50;;;;;;5006355;28;20164;-75
2021/03/19 06:06:54;;;;;;;24.50;13.73;;;2.50;78.90;;;;;;5014187;28;20517;-75
2021/03/19 06:09:32;;;;;;;26.00;13.20;;;2.50;78.60;;;;;;5025730;28;20484;-72
2021/03/19 06:12:07;;;;;;;24.33;12.60;;;2.50;79.30;;;;;;5017274;28;20461;-73
2021/03/19 06:14:46;;;;;;;27.20;14.47;;;2.60;77.80;;;;;;5013939;28;20445;-72
2021/03/19 06:17:33;;;;;;;21.80;12.40;;;2.60;77.40;;;;;;5013109;28;20444;-73
2021/03/19 06:20:02;;;;;;;22.13;11.23;;;2.60;77.70;;;;;;5013503;28;20437;-73
2021/03/19 06:22:37;;;;;;;26.50;14.20;;;2.60;76.50;;;;;;5013821;28;20445;-73
2021/03/19 06:25:20;;;;;;;23.37;13.00;;;2.60;76.40;;;;;;5014079;28;20500;-71
2021/03/19 06:27:53;;;;;;;22.60;12.53;;;2.70;76.30;;;;;;5015922;28;20540;-71
2021/03/19 06:30:24;;;;;;;18.53;10.13;;;2.70;76.20;;;;;;5014086;28;20548;-71
2021/03/19 06:33:02;;;;;;;25.93;12.77;;;2.80;76.10;;;;;;5014442;28;20520;-73
2021/03/19 06:35:34;;;;;;;23.10;12.17;;;2.80;75.80;;;;;;5020799;28;20414;-71
2021/03/19 06:38:31;;;;;;;21.43;11.57;;;2.80;75.50;;;;;;5017893;28;20868;-73
2021/03/19 06:41:18;;;;;;;14.90;10.17;;;2.90;75.10;;;;;;4994433;28;20483;-72
2021/03/19 06:43:44;;;;;;;16.87;9.90;;;2.90;74.70;;;;;;4994500;28;20578;-71
2021/03/19 06:46:10;;;;;;;20.33;10.40;;;2.90;73.70;;;;;;4994083;28;20916;-72
2021/03/19 06:48:46;;;;;;;17.60;10.20;;;2.90;73.00;;;;;;4996011;28;20426;-72
2021/03/19 06:51:30;;;;;;;24.83;13.67;;;3.00;73.00;;;;;;5013820;28;20178;-70
2021/03/19 06:53:59;;;;;;;23.50;13.10;;;3.10;72.80;;;;;;5011777;28;20481;-71
2021/03/19 06:56:25;;;;;;;19.30;11.17;;;3.10;72.50;;;;;;5011691;28;21012;-72
2021/03/19 06:58:52;;;;;;;20.33;10.97;;;3.20;72.10;;;;;;5012192;28;20501;-70
2021/03/19 07:01:23;;;;;;;23.13;11.10;;;3.20;71.70;;;;;;5011971;28;20430;-72
2021/03/19 07:03:52;;;;;;;28.80;14.03;;;3.30;71.50;;;;;;5011296;28;20525;-71
2021/03/19 07:06:39;;;;;;;26.07;13.77;;;3.30;71.10;;;;;;5010876;28;20414;-72
2021/03/19 07:09:31;;;;;;;20.00;13.00;;;3.40;71.40;;;;;;5008295;28;21089;-74
2021/03/19 07:12:07;;;;;;;20.50;10.70;;;3.50;71.20;;;;;;5010524;28;20829;-73
2021/03/19 07:15:06;;;;;;;19.97;11.40;;;3.50;70.60;;;;;;5019333;28;20419;-74
2021/03/19 07:17:55;;;;;;;23.93;11.10;;;3.60;69.40;;;;;;5019950;28;20421;-75
2021/03/19 07:21:14;;;;;;;16.53;8.90;;;3.60;69.10;;;;;;5009823;28;20492;-74
2021/03/19 07:23:58;;;;;;;20.50;10.40;;;3.70;69.40;;;;;;4950021;29;20440;-75
2021/03/19 07:26:31;;;;;;;24.20;12.87;;;3.80;68.90;;;;;;5010537;28;20446;-74
2021/03/19 07:29:09;;;;;;;18.90;9.33;;;3.80;68.60;;;;;;5010731;28;20417;-73
2021/03/19 07:31:48;;;;;;;19.00;11.40;;;3.90;68.20;;;;;;5018524;28;20523;-76
2021/03/19 07:34:44;;;;;;;20.97;12.10;;;3.90;67.80;;;;;;5011460;28;20422;-78
2021/03/19 07:37:44;;;;;;;23.23;10.70;;;4.00;67.80;;;;;;5029938;28;20445;-77
2021/03/19 07:40:16;;;;;;;18.00;10.57;;;4.10;67.10;;;;;;5013842;28;20429;-78
2021/03/19 07:42:56;;;;;;;18.70;12.20;;;4.10;66.40;;;;;;5023576;28;20529;-77
2021/03/19 07:45:40;;;;;;;24.60;13.13;;;4.20;66.40;;;;;;5021076;28;20454;-77
2021/03/19 07:48:46;;;;;;;18.63;10.93;;;4.30;66.30;;;;;;5021138;28;20417;-78
2021/03/19 07:51:24;;;;;;;20.67;9.83;;;5.00;67.10;;;;;;4992670;28;20843;-78
2021/03/19 07:53:56;;;;;;;24.03;11.90;;;6.60;62.40;;;;;;5014774;28;20481;-78
2021/03/19 07:56:51;;;;;;;18.53;11.00;;;8.30;57.90;;;;;;5008891;28;20417;-77
2021/03/19 07:59:42;;;;;;;19.40;11.00;;;9.90;54.60;;;;;;5024245;28;20525;-77
2021/03/19 08:02:32;;;;;;;21.30;9.83;;;11.30;49.10;;;;;;5031548;28;20453;-78
2021/03/19 08:05:19;;;;;;;23.00;11.77;;;12.40;48.00;;;;;;5031739;28;20460;-78
2021/03/19 08:07:48;;;;;;;15.53;9.97;;;13.40;45.20;;;;;;5044468;28;20417;-77
2021/03/19 08:10:47;;;;;;;18.47;10.77;;;14.20;43.50;;;;;;5038946;28;20460;-77
2021/03/19 08:13:32;;;;;;;22.00;11.77;;;14.60;41.10;;;;;;5020909;28;20448;-78
2021/03/19 08:16:28;;;;;;;17.23;10.43;;;14.80;39.90;;;;;;5038298;28;20417;-79
2021/03/19 08:19:11;;;;;;;15.87;10.70;;;14.90;39.00;;;;;;5002852;28;20462;-78
2021/03/19 08:22:08;;;;;;;16.10;10.30;;;14.90;38.50;;;;;;5026939;28;20456;-79
2021/03/19 08:24:55;;;;;;;18.67;10.77;;;15.00;38.50;;;;;;5015404;28;20761;-77
2021/03/19 08:27:36;;;;;;;20.03;12.37;;;14.90;37.80;;;;;;5033779;28;20558;-78
2021/03/19 08:30:34;;;;;;;20.90;11.30;;;14.60;37.70;;;;;;5020107;28;20453;-78
2021/03/19 08:33:15;;;;;;;12.73;8.40;;;14.30;38.20;;;;;;5025440;28;20466;-78
2021/03/19 08:36:04;;;;;;;11.73;8.97;;;14.70;37.30;;;;;;5018120;28;20502;-77
2021/03/19 08:38:35;;;;;;;14.40;9.17;;;14.80;36.40;;;;;;5027891;28;20485;-79
2021/03/19 08:41:07;;;;;;;19.37;9.80;;;15.20;35.90;;;;;;5039729;28;20421;-79
2021/03/19 08:43:42;;;;;;;12.30;8.70;;;15.30;36.80;;;;;;5011149;28;20445;-77
2021/03/19 08:46:22;;;;;;;11.93;7.70;;;15.70;36.20;;;;;;5028387;28;20428;-79
2021/03/19 08:48:59;;;;;;;12.03;9.87;;;15.90;35.00;;;;;;5004472;28;20487;-78
2021/03/19 08:51:29;;;;;;;13.53;8.57;;;15.80;35.10;;;;;;5018741;28;20432;-78
2021/03/19 08:54:16;;;;;;;17.57;8.83;;;15.80;35.20;;;;;;5028882;28;20909;-81
2021/03/19 08:56:52;;;;;;;12.57;8.07;;;15.80;35.20;;;;;;5030000;28;20433;-80
2021/03/19 08:59:49;;;;;;;12.37;8.30;;;15.70;34.70;;;;;;5045246;28;20503;-78
2021/03/19 09:02:18;;;;;;;17.53;11.30;;;15.70;34.50;;;;;;5020559;28;20430;-77
2021/03/19 09:04:52;;;;;;;10.37;7.40;;;16.00;33.80;;;;;;5025432;28;20479;-77
2021/03/19 09:07:27;;;;;;;13.07;8.10;;;15.90;34.30;;;;;;5030233;28;20407;-78
2021/03/19 09:09:56;;;;;;;7.80;6.53;;;15.80;34.20;;;;;;5036691;28;20449;-78
2021/03/19 09:12:27;;;;;;;15.50;7.07;;;15.20;33.90;;;;;;4997266;28;20986;-81
2021/03/19 09:15:15;;;;;;;8.80;6.50;;;15.10;34.90;;;;;;5032349;28;20422;-78
2021/03/19 09:17:44;;;;;;;8.13;6.63;;;15.60;35.10;;;;;;5016934;28;20425;-78
2021/03/19 09:20:25;;;;;;;9.87;7.03;;;15.60;33.90;;;;;;5023418;28;20484;-81
2021/03/19 09:23:09;;;;;;;10.33;5.27;;;15.40;34.40;;;;;;5019406;28;20476;-78
2021/03/19 09:25:56;;;;;;;8.70;6.10;;;14.90;32.80;;;;;;5020813;28;20860;-80
2021/03/19 09:28:25;;;;;;;6.37;4.77;;;13.60;34.60;;;;;;5010709;28;20433;-78
2021/03/19 09:31:22;;;;;;;11.70;6.00;;;13.30;34.20;;;;;;5017691;28;20418;-78
2021/03/19 09:33:48;;;;;;;8.20;6.23;;;12.40;35.40;;;;;;5020228;28;20858;-78
2021/03/19 09:36:48;;;;;;;7.17;4.90;;;12.10;35.50;;;;;;5019420;28;20460;-79
2021/03/19 09:39:45;;;;;;;6.63;5.00;;;11.30;36.70;;;;;;5021462;28;20260;-78
2021/03/19 09:42:22;;;;;;;7.60;4.50;;;11.20;37.70;;;;;;5017033;28;20450;-77
2021/03/19 09:45:03;;;;;;;8.47;4.80;;;11.50;37.70;;;;;;5017395;28;20418;-77
2021/03/19 09:47:35;;;;;;;5.30;3.80;;;12.40;36.70;;;;;;5021052;28;20425;-79
2021/03/19 09:50:22;;;;;;;7.63;4.30;;;12.90;35.50;;;;;;5017759;28;20795;-78
2021/03/19 09:52:59;;;;;;;3.40;2.90;;;13.20;34.70;;;;;;5020005;28;20464;-79
2021/03/19 09:55:35;;;;;;;6.20;3.60;;;13.80;33.90;;;;;;5020901;28;20421;-78
2021/03/19 09:58:18;;;;;;;5.77;3.07;;;14.30;33.30;;;;;;5010685;28;20478;-79
2021/03/19 10:00:50;;;;;;;4.10;2.90;;;14.30;31.50;;;;;;5021283;28;20504;-79
2021/03/19 10:03:15;;;;;;;5.50;3.00;;;13.80;31.30;;;;;;5020272;28;20461;-78
2021/03/19 10:05:45;;;;;;;5.07;3.20;;;13.00;32.10;;;;;;4999389;28;20417;-79
2021/03/19 10:08:27;;;;;;;5.73;3.07;;;13.00;32.10;;;;;;5018436;28;20175;-78
2021/03/19 10:11:05;;;;;;;3.87;3.10;;;12.80;32.40;;;;;;5000577;28;20430;-78
2021/03/19 10:13:30;;;;;;;5.20;2.53;;;12.00;33.90;;;;;;5030142;28;20464;-78
2021/03/19 10:15:57;;;;;;;5.73;3.70;;;11.30;34.20;;;;;;5019426;28;20425;-78
2021/03/19 10:18:34;;;;;;;6.80;5.23;;;10.80;35.70;;;;;;5033786;28;20206;-78
2021/03/19 10:21:06;;;;;;;5.20;3.50;;;10.30;37.40;;;;;;5019432;28;20477;-79
2021/03/19 10:23:37;;;;;;;5.80;3.17;;;9.80;39.50;;;;;;5033184;28;20446;-78
2021/03/19 10:26:24;;;;;;;4.60;2.80;;;9.70;39.80;;;;;;5024184;28;20536;-78
2021/03/19 10:28:58;;;;;;;3.30;2.53;;;9.70;39.50;;;;;;5017225;28;20434;-78
2021/03/19 10:31:27;;;;;;;3.83;2.73;;;9.60;38.00;;;;;;5001270;28;20433;-77
2021/03/19 10:34:01;;;;;;;4.30;2.90;;;9.40;39.00;;;;;;5021892;28;20450;-78
2021/03/19 10:36:59;;;;;;;4.20;3.47;;;9.50;39.30;;;;;;5035522;28;20417;-78
2021/03/19 10:39:31;;;;;;;5.30;2.70;;;9.50;39.00;;;;;;5014725;28;20438;-79
2021/03/19 10:42:19;;;;;;;5.87;2.93;;;9.50;39.10;;;;;;5021453;28;20470;-77
2021/03/19 10:45:06;;;;;;;4.00;2.10;;;9.50;38.40;;;;;;5019298;28;20457;-77
2021/03/19 10:47:42;;;;;;;3.60;1.83;;;9.30;38.20;;;;;;5010971;28;20441;-78
2021/03/19 10:50:15;;;;;;;2.80;2.07;;;9.30;38.20;;;;;;5014132;28;20422;-78
2021/03/19 10:53:06;;;;;;;3.47;2.27;;;9.00;38.30;;;;;;5018911;28;20497;-79
2021/03/19 10:55:35;;;;;;;4.87;2.30;;;8.90;39.20;;;;;;5036888;28;20418;-79
2021/03/19 10:58:21;;;;;;;2.87;2.13;;;8.90;39.00;;;;;;5020694;28;20811;-78
2021/03/19 11:00:49;;;;;;;4.60;2.53;;;8.90;39.20;;;;;;5023229;28;20453;-79
2021/03/19 11:03:39;;;;;;;3.67;1.77;;;8.80;39.60;;;;;;5023392;28;20502;-79
2021/03/19 11:06:12;;;;;;;4.83;2.33;;;8.90;38.80;;;;;;5009492;28;20460;-79
2021/03/19 11:08:38;;;;;;;3.07;2.40;;;8.80;38.80;;;;;;5026369;28;20426;-79
2021/03/19 11:11:05;;;;;;;3.87;2.23;;;8.60;38.80;;;;;;5023841;28;20421;-78
2021/03/19 11:13:34;;;;;;;4.40;2.17;;;8.60;39.10;;;;;;5023453;28;20429;-78
2021/03/19 11:16:03;;;;;;;11.60;7.10;;;8.40;39.80;;;;;;5021151;28;20426;-79
2021/03/19 11:18:34;;;;;;;3.43;2.10;;;8.50;40.30;;;;;;5041218;28;20458;-77
2021/03/19 11:21:08;;;;;;;4.03;2.23;;;8.70;40.20;;;;;;5020458;28;20498;-78
2021/03/19 11:23:46;;;;;;;3.23;2.30;;;8.90;40.40;;;;;;5021559;28;20429;-79
2021/03/19 11:26:23;;;;;;;3.33;1.80;;;9.20;39.60;;;;;;5024516;28;20414;-78
2021/03/19 11:29:04;;;;;;;4.30;2.60;;;9.40;39.40;;;;;;5028667;28;20449;-80
2021/03/19 11:31:30;;;;;;;4.10;2.57;;;9.50;39.10;;;;;;5030015;28;20483;-79
2021/03/19 11:34:11;;;;;;;5.20;2.60;;;9.50;38.70;;;;;;5028131;28;20506;-79
2021/03/19 11:36:57;;;;;;;4.50;2.70;;;9.40;38.60;;;;;;5027258;28;20178;-80
2021/03/19 11:39:55;;;;;;;6.17;1.90;;;9.20;38.90;;;;;;5025178;28;20449;-79
2021/03/19 11:42:26;;;;;;;7.80;4.37;;;9.00;39.40;;;;;;5028154;28;20540;-79
2021/03/19 11:45:05;;;;;;;5.10;3.33;;;9.00;39.00;;;;;;5014420;28;20509;-77
2021/03/19 11:47:34;;;;;;;4.97;2.43;;;8.90;38.70;;;;;;5044126;28;20573;-80
2021/03/19 11:50:26;;;;;;;2.73;2.40;;;8.70;39.00;;;;;;5028972;28;20414;-81
2021/03/19 11:52:56;;;;;;;3.43;2.70;;;8.70;39.30;;;;;;5042890;28;20472;-78
2021/03/19 11:55:42;;;;;;;3.10;1.97;;;8.60;40.30;;;;;;5038425;28;20416;-80
2021/03/19 11:58:09;;;;;;;3.63;2.20;;;8.70;39.40;;;;;;5024049;28;20460;-78
2021/03/19 12:00:37;;;;;;;3.90;2.50;;;8.80;39.20;;;;;;5047642;28;20417;-80
2021/03/19 12:03:06;;;;;;;3.87;2.17;;;8.70;39.20;;;;;;5038663;28;20489;-79
2021/03/19 12:05:33;;;;;;;3.23;2.40;;;8.60;40.00;;;;;;5026551;28;20915;-77
2021/03/19 12:07:59;;;;;;;3.77;1.90;;;8.70;39.60;;;;;;5035989;28;20430;-77
2021/03/19 12:10:30;;;;;;;1.73;1.57;;;8.80;39.60;;;;;;5033737;28;20422;-79
2021/03/19 12:13:00;;;;;;;2.17;1.80;;;8.80;39.60;;;;;;5030906;28;20453;-79
2021/03/19 12:15:28;;;;;;;2.87;1.70;;;9.00;39.30;;;;;;5025709;28;20418;-77
2021/03/19 12:17:54;;;;;;;4.23;1.50;;;9.20;39.00;;;;;;5018880;28;20537;-78
2021/03/19 12:20:22;;;;;;;4.07;2.07;;;9.30;37.30;;;;;;5053025;28;20438;-80
2021/03/19 12:22:54;;;;;;;3.80;2.17;;;9.30;37.20;;;;;;5037414;28;20174;-78
2021/03/19 12:25:24;;;;;;;4.37;1.47;;;9.30;37.50;;;;;;5038388;28;20434;-79
2021/03/19 12:27:51;;;;;;;3.40;2.10;;;9.40;37.30;;;;;;5020140;28;20416;-80
2021/03/19 12:30:18;;;;;;;7.13;2.00;;;9.30;36.80;;;;;;5054410;28;20413;-80
2021/03/19 12:32:45;;;;;;;2.50;1.50;;;9.20;37.60;;;;;;5040195;28;20429;-78
2021/03/19 12:35:11;;;;;;;2.93;1.93;;;9.30;38.00;;;;;;5039401;28;20448;-79
2021/03/19 12:37:37;;;;;;;2.30;1.73;;;9.50;37.40;;;;;;5037881;28;20422;-79
2021/03/19 12:40:04;;;;;;;8.43;2.20;;;9.50;37.20;;;;;;5065671;28;20409;-79
2021/03/19 12:42:30;;;;;;;5.30;2.10;;;9.50;36.50;;;;;;5070751;28;20512;-78
2021/03/19 12:44:55;;;;;;;4.70;1.53;;;9.60;37.00;;;;;;5037443;28;20427;-79
2021/03/19 12:47:21;;;;;;;2.63;1.50;;;9.70;36.80;;;;;;5042183;28;20195;-80
2021/03/19 12:49:47;;;;;;;1.87;1.37;;;9.70;37.30;;;;;;5036212;28;20251;-80
2021/03/19 12:52:13;;;;;;;2.00;1.60;;;9.70;36.60;;;;;;5030975;28;20476;-78
2021/03/19 12:54:39;;;;;;;3.20;1.40;;;9.60;36.30;;;;;;5022406;28;20251;-78
2021/03/19 12:57:05;;;;;;;3.03;1.60;;;9.60;36.90;;;;;;5003077;28;20259;-78
2021/03/19 12:59:30;;;;;;;3.60;1.83;;;9.70;36.10;;;;;;5010169;28;20195;-79
2021/03/19 13:01:57;;;;;;;2.40;1.20;;;9.90;35.60;;;;;;5036747;28;20218;-79
2021/03/19 13:04:24;;;;;;;1.83;1.20;;;9.90;36.00;;;;;;5029529;28;20158;-79
2021/03/19 13:06:50;;;;;;;2.03;1.40;;;9.90;34.30;;;;;;5023157;28;20410;-77
2021/03/19 13:09:16;;;;;;;2.47;1.57;;;10.00;33.70;;;;;;5004036;28;20422;-79
2021/03/19 13:11:42;;;;;;;2.27;1.60;;;10.10;34.30;;;;;;5005276;28;20517;-78
2021/03/19 13:14:08;;;;;;;2.07;1.40;;;10.10;35.80;;;;;;5019969;28;20171;-78
2021/03/19 13:16:34;;;;;;;6.47;1.90;;;9.80;37.20;;;;;;5021042;28;20294;-78
2021/03/19 13:19:03;;;;;;;2.83;1.60;;;9.60;38.20;;;;;;5022455;28;20567;-77
2021/03/19 13:21:30;;;;;;;4.83;2.03;;;9.60;38.20;;;;;;5033417;28;20418;-79